AirNav   Air Wisconsin Up To $57,000 Bonus
 
 1373 users online  

4CA1 City National Bank Heliport
Los Angeles, California, USA

GOING TO LOS ANGELES?


FAA INFORMATION EFFECTIVE 08 OCTOBER 2020

Location

FAA Identifier: 4CA1
Lat/Long: 34-02-51.7900N 118-15-14.8900W
34-02.863167N 118-15.248167W
34.0477194,-118.2541361
(estimated)
Elevation: 453 ft. / 138 m (estimated)
Variation: 14E (1985)
Time zone: UTC -7 (UTC -8 during Standard Time)
Zip code: 90014

Heliport Operations

Heliport use: Private use. Permission required prior to landing
Activation date: 01/1977
Control tower: no
ARTCC: LOS ANGELES CENTER
FSS: HAWTHORNE FLIGHT SERVICE STATION
Attendance: UNATNDD
Wind indicator: yes
Segmented circle: yes

Heliport Communications

WX ASOS at HHR (9 nm SW): PHONE 310-973-8930
WX AWOS-3PT at CPM (9 nm S): 127.150 (310-631-4958)
WX ASOS at LAX (10 nm SW): PHONE 310-568-1486
WX ASOS at SMO (10 nm W): PHONE 310-392-6453
WX ASOS at BUR (11 nm NW): PHONE 818-841-1384
WX AWOS-3PT at EMT (11 nm E): 118.75 ((626) 444-1107)
WX ASOS at LGB (15 nm S): PHONE 562-424-0572
WX AWOS-3PT at WHP (15 nm NW): 132.1 (818-899-9820)
WX ASOS at VNY (15 nm NW): PHONE 818-904-9213
WX ASOS at FUL (17 nm SE): PHONE 714-870-1372

Nearby radio navigation aids

VOR radial/distance  VOR name  Freq  Var
SMOr062/10.3SANTA MONICA VOR/DME110.8015E
LAXr037/11.2LOS ANGELES VORTAC113.6015E
VNYr117/15.8VAN NUYS VOR/DME113.1015E
SLIr313/18.7SEAL BEACH VORTAC115.7015E
POMr250/23.3POMONA VORTAC110.4015E
ELBr297/34.3EL TORO VOR/DME117.2014E
FIMr106/36.2FILLMORE VORTAC112.5015E
PMDr180/36.3PALMDALE VORTAC114.5015E
PDZr267/36.9PARADISE VORTAC112.2015E
VTUr081/39.7VENTURA VOR/DME108.2015E

Heliport Services

Runway Information

Helipad H1

Dimensions: 60 x 60 ft. / 18 x 18 m
Surface: concrete
Latitude: 34-02.863167N
Longitude: 118-15.248167W
Elevation: 453.0 ft.
Traffic pattern: leftleft

Heliport Ownership and Management from official FAA records

Ownership: Privately-owned
Owner: 606 OLIVE, LLC
606 S. OLIVE ST 1420 #600
LOS ANGELES, CA 90014
Phone (213) 683-8000
Manager: BILL ZENGLER
606 S. OLIVE ST
LOS ANGELES, CA 90014
Phone (310) 666-3400
PROPERTY MANAGER: DUNIEL CHANG DUNIEL@ROBHANA.COM 213-246-8514

Additional Remarks

FACILITY IS EMERGENCY HELICOPTER LANDING FACILITY (EHLF) ONLY.
FOR CD CTC LOS ANGELES ARTCC AT 661-575-2079.

Instrument Procedures

There are no published instrument procedures at 4CA1.

Some nearby airports with instrument procedures:

KHHR - Jack Northrop Field/Hawthorne Municipal Airport (9 nm SW)
KLAX - Los Angeles International Airport (10 nm SW)
KSMO - Santa Monica Municipal Airport (10 nm W)
KBUR - Bob Hope Airport (11 nm NW)
KEMT - San Gabriel Valley Airport (11 nm E)
KLGB - Long Beach Airport (Daugherty Field) (15 nm S)
KWHP - Whiteman Airport (15 nm NW)
KVNY - Van Nuys Airport (15 nm NW)
KTOA - Zamperini Field Airport (15 nm S)
KFUL - Fullerton Municipal Airport (17 nm SE)
 
Loc | Ops | Rwys | IFR | FBO | Links
Com | Nav | Svcs | Stats | Notes
Area around 4CA1 (City National Bank Heliport)
 
Road maps at: MapQuest Bing Google
 
Aerial photo
No photo
 
Sectional chart

 
Airport distance calculator
Flying to City National Bank Heliport? Find the distance to fly.

From to 4CA1

Sunrise and sunset
Times for 21-Oct-2020
 Local
(UTC-7)
 Zulu
(UTC)
Morning civil twilight06:4013:40
Sunrise07:0514:05
Sunset18:1001:10
Evening civil twilight18:3501:35

Current date and time
Zulu (UTC)  21-Oct-2020 21:22:54
Local (UTC-7)  21-Oct-2020 14:22:54
 
METAR
KCQT 212052Z AUTO 00000KT 3SM HZ CLR 23/15 A2980 RMK AO2 SLP089 T02330150 58018
KHHR 
9nm SW 
212053Z 26009KT 6SM HZ OVC023 22/15 A2982 RMK AO2 SLP095 T02220150 58017
KLAX 
9nm SW 
212053Z 25009KT 5SM BR SCT019 BKN021 21/16 A2982 RMK AO2 SLP095 T02110156 58015
KSMO 
10nm W 
212051Z 22007KT 4SM HZ OVC019 21/16 A2982 RMK AO2 SLP095 T02110156 58016
KBUR 
11nm NW 
212053Z 4SM HZ CLR 23/14 A2981 RMK AO2 SLP082 T02330144 58020
KEMT 
12nm E 
212045Z 20004KT 3SM HZ CLR 23/16 A2982
KWHP 
15nm NW 
212055Z 00000KT 6SM HZ SKC 23/14 A2985
KLGB 
15nm S 
212053Z 18003KT 10SM FEW024 22/15 A2981 RMK AO2 SLP095 T02170150 58018
KVNY 
15nm NW 
212051Z 25003KT 5SM HZ CLR 24/13 A2981 RMK AO2 SLP084 T02440133 58019
KTOA 
16nm S 
212049Z 27008KT 10SM FEW015 23/16 A2981
TAF
KLAX 
9nm SW 
211724Z 2118/2224 14005KT 3SM BR OVC015 FM212000 26012KT P6SM SCT015 FM220100 26010KT P6SM BKN014 FM220300 26008KT 6SM BR OVC009 FM220800 VRB03KT P6SM OVC014 FM221700 19006KT P6SM OVC020 FM222100 25010KT P6SM BKN025
KSMO 
10nm W 
211724Z 2118/2218 31003KT 3SM HZ OVC012 FM212000 23008KT 6SM HZ SCT015 FM220300 VRB03KT P6SM SKC FM220600 VRB03KT 5SM BR OVC008 FM220900 VRB03KT 6SM BR OVC012 FM221500 05004KT P6SM OVC015
KBUR 
11nm NW 
212004Z 2120/2218 VRB06KT 4SM HZ SKC FM212100 17008KT P6SM SKC FM220300 VRB03KT P6SM SKC FM220500 VRB03KT 6SM BR BKN008 FM221000 VRB03KT P6SM OVC014
KLGB 
15nm S 
211724Z 2118/2218 09003KT 3SM HZ OVC013 FM211900 19008KT P6SM SCT016 FM212300 25006KT P6SM SKC FM220400 VRB03KT P6SM BKN009 FM220800 VRB03KT P6SM OVC016 FM221600 17005KT P6SM BKN020
KVNY 
15nm NW 
211724Z 2118/2218 00000KT 3SM HZ SCT011 FM212100 15008KT P6SM SKC FM220300 VRB03KT P6SM SKC FM220700 VRB03KT P6SM OVC009 FM221100 VRB03KT P6SM OVC014
NOTAMs
Click for the latest NOTAMs
NOTAMs are issued by the DoD/FAA and will open in a separate window not controlled by AirNav.

 

 
 

Would you like to see your business listed on this page?

 If your business provides an interesting product or service to pilots, flight crews, aircraft, or users of the City National Bank Heliport, you should consider listing it here.  To start the listing process, click on the button below
 
Add a business
 

Other Pages about City National Bank Heliport

Update a link
 
Copyright © AirNav, LLC. All rights reserved. Privacy Policy  Contact